Time;durP1;ratioP1;P1;durP2;ratioP2;P2;SDS_P1;SDS_P2;PMS_P1;PMS_P2;Temp;Humidity;BMP_temperature;BMP_pressure;BME280_temperature;BME280_humidity;BME280_pressure;Samples;Min_cycle;Max_cycle;Signal;HPM_P1;HPM_P2
2023/09/19 00:01:20;;;;;;;10.68;6.22;;;;;;;23.13;55.55;93052.50;4848332;29;20051;-94
2023/09/19 00:03:49;;;;;;;9.98;6.38;;;;;;;23.12;55.76;93046.25;4859031;29;20405;-93
2023/09/19 00:06:20;;;;;;;11.48;6.32;;;;;;;23.12;55.70;93043.50;4829430;29;20049;-94
2023/09/19 00:08:48;;;;;;;11.88;6.82;;;;;;;23.11;55.82;93053.03;4855840;29;20396;-95
2023/09/19 00:11:14;;;;;;;10.27;6.38;;;;;;;23.12;55.82;93045.50;4860255;29;20045;-94
2023/09/19 00:13:45;;;;;;;11.80;6.68;;;;;;;23.12;55.79;93043.50;4830240;29;20097;-95
2023/09/19 00:16:14;;;;;;;9.07;5.90;;;;;;;23.12;55.73;93051.03;4837531;29;20049;-93
2023/09/19 00:18:43;;;;;;;9.18;5.60;;;;;;;23.11;55.82;93044.03;4830263;29;20128;-96
2023/09/19 00:21:20;;;;;;;8.50;5.90;;;;;;;23.12;55.69;93054.53;4837418;29;20041;-93
2023/09/19 00:23:51;;;;;;;7.75;5.40;;;;;;;23.12;55.57;93046.25;4824631;29;20042;-94
2023/09/19 00:26:18;;;;;;;10.73;6.65;;;;;;;23.13;55.60;93049.75;4849968;29;20510;-94
2023/09/19 00:28:45;;;;;;;11.70;6.28;;;;;;;23.10;55.70;93053.59;4839260;29;20053;-94
2023/09/19 00:31:23;;;;;;;11.52;6.78;;;;;;;23.10;55.69;93050.84;4843792;29;20056;-94
2023/09/19 00:33:49;;;;;;;8.52;5.63;;;;;;;23.11;55.63;93052.31;4849087;29;20154;-94
2023/09/19 00:36:18;;;;;;;9.95;6.30;;;;;;;23.09;55.66;93054.88;4832340;29;20052;-94
2023/09/19 00:38:47;;;;;;;9.85;6.47;;;;;;;23.10;55.71;93057.09;4850017;29;20414;-96
2023/09/19 00:41:17;;;;;;;11.60;6.20;;;;;;;23.09;55.70;93063.88;4839126;29;20041;-94
2023/09/19 00:44:02;;;;;;;9.48;6.38;;;;;;;23.11;55.62;93055.06;4881792;29;20128;-94
2023/09/19 00:46:30;;;;;;;10.10;6.32;;;;;;;23.10;55.66;93072.91;4854638;29;20045;-95
2023/09/19 00:48:56;;;;;;;10.02;6.78;;;;;;;23.09;55.63;93071.41;4844433;29;20128;-94
2023/09/19 00:51:30;;;;;;;11.52;6.78;;;;;;;23.08;55.53;93072.72;4841605;29;21809;-94
2023/09/19 00:54:28;;;;;;;9.05;5.93;;;;;;;23.08;55.58;93067.19;4847763;29;20139;-93
2023/09/19 00:56:54;;;;;;;13.45;6.63;;;;;;;23.10;55.56;93073.63;4861715;29;20053;-94
2023/09/19 00:59:30;;;;;;;10.65;6.32;;;;;;;23.08;55.79;93065.16;4824577;29;20072;-94
2023/09/19 01:01:56;;;;;;;9.60;6.15;;;;;;;23.07;55.61;93058.19;4845386;29;20163;-95
2023/09/19 01:04:23;;;;;;;11.35;6.35;;;;;;;23.08;55.45;93062.41;4859355;29;20109;-94
2023/09/19 01:06:53;;;;;;;7.82;6.50;;;;;;;23.09;55.56;93049.38;4847346;29;20485;-94
2023/09/19 01:09:24;;;;;;;9.00;5.53;;;;;;;23.07;55.59;93046.41;4842577;29;20048;-93
2023/09/19 01:12:03;;;;;;;9.90;5.57;;;;;;;23.07;55.77;93046.41;4837645;29;20041;-95
2023/09/19 01:14:42;;;;;;;9.50;5.80;;;;;;;23.08;55.59;93054.16;4832098;29;20596;-93
2023/09/19 01:17:20;;;;;;;8.20;5.10;;;;;;;23.08;55.45;93056.16;4851543;29;20131;-94
2023/09/19 01:20:23;;;;;;;9.88;5.68;;;;;;;23.06;55.51;93051.19;4838142;29;20041;-94
2023/09/19 01:22:51;;;;;;;9.27;5.50;;;;;;;23.05;55.54;93055.25;4860306;29;20051;-94
2023/09/19 01:25:40;;;;;;;8.48;5.43;;;;;;;23.06;55.54;93053.94;4870464;29;20069;-94
2023/09/19 01:28:24;;;;;;;8.63;5.45;;;;;;;23.04;55.60;93064.78;4871750;29;20045;-94
2023/09/19 01:31:01;;;;;;;9.80;5.97;;;;;;;23.06;55.63;93059.47;4861638;29;20045;-95
2023/09/19 01:33:33;;;;;;;10.15;6.55;;;;;;;23.04;55.57;93064.06;4832982;29;20501;-92
2023/09/19 01:36:05;;;;;;;7.45;5.13;;;;;;;23.04;55.66;93064.78;4849337;29;20037;-93
2023/09/19 01:38:32;;;;;;;8.60;5.00;;;;;;;23.04;55.57;93067.56;4838071;29;20098;-94
2023/09/19 01:41:12;;;;;;;8.88;6.07;;;;;;;23.04;55.43;93069.56;4834940;29;20097;-94
2023/09/19 01:43:45;;;;;;;9.57;5.10;;;;;;;23.04;55.38;93066.81;4847233;29;20046;-95
2023/09/19 01:46:27;;;;;;;7.90;5.15;;;;;;;23.03;55.50;93059.81;4854172;29;20597;-94
2023/09/19 01:49:26;;;;;;;11.52;6.15;;;;;;;23.04;55.31;93067.56;4828524;29;20498;-94
2023/09/19 01:52:02;;;;;;;11.32;5.28;;;;;;;23.05;55.37;93073.81;4850308;29;20042;-94
2023/09/19 01:54:31;;;;;;;8.55;5.10;;;;;;;23.04;55.46;93075.09;4829363;29;20050;-94
2023/09/19 01:57:05;;;;;;;7.78;5.57;;;;;;;23.05;55.35;93074.53;4860795;29;20040;-94
2023/09/19 01:59:41;;;;;;;7.10;4.60;;;;;;;23.05;55.55;93079.31;4836282;29;20052;-94
2023/09/19 02:02:06;;;;;;;7.40;4.70;;;;;;;23.03;55.52;93084.63;4833875;29;20037;-95
2023/09/19 02:04:36;;;;;;;8.02;5.05;;;;;;;23.03;55.25;93085.38;4826861;29;20033;-94
2023/09/19 02:07:05;;;;;;;10.23;6.00;;;;;;;23.05;55.33;93079.31;4861983;29;20037;-95
2023/09/19 02:09:38;;;;;;;9.40;5.60;;;;;;;23.04;55.73;93086.13;4796822;29;20125;-94
2023/09/19 02:12:07;;;;;;;8.05;5.35;;;;;;;23.04;55.43;93077.84;4854012;29;20112;-93
2023/09/19 02:14:36;;;;;;;8.80;5.07;;;;;;;23.03;55.38;93096.41;4801058;29;20034;-94
2023/09/19 02:17:07;;;;;;;7.13;4.85;;;;;;;23.03;55.38;93088.13;4829358;29;20331;-94
2023/09/19 02:19:36;;;;;;;7.70;4.82;;;;;;;23.03;55.46;93095.66;4780934;29;20062;-94
2023/09/19 02:22:07;;;;;;;7.13;5.07;;;;;;;23.03;55.33;93098.44;4788181;29;20058;-94
2023/09/19 02:24:45;;;;;;;6.93;4.47;;;;;;;23.02;55.39;93092.19;4805188;29;20050;-93
2023/09/19 02:27:15;;;;;;;7.20;4.45;;;;;;;23.02;55.46;93088.69;4799924;29;20141;-93
2023/09/19 02:29:47;;;;;;;6.68;4.47;;;;;;;23.02;55.45;93094.19;4825240;29;20046;-93
2023/09/19 02:32:12;;;;;;;6.82;4.60;;;;;;;23.04;55.21;93091.63;4814668;29;20050;-95
2023/09/19 02:34:39;;;;;;;8.18;5.57;;;;;;;23.02;55.44;93097.69;4781641;29;20065;-94
2023/09/19 02:37:08;;;;;;;6.07;4.70;;;;;;;23.01;55.20;93101.00;4822228;29;20041;-94
2023/09/19 02:39:34;;;;;;;7.17;4.80;;;;;;;23.02;55.45;93100.44;4802009;29;20136;-94
2023/09/19 02:42:05;;;;;;;6.10;4.22;;;;;;;23.02;55.56;93096.94;4820031;29;20065;-94
2023/09/19 02:44:33;;;;;;;7.00;4.32;;;;;;;23.02;55.26;93096.94;4806614;29;20042;-95
2023/09/19 02:47:02;;;;;;;8.18;4.78;;;;;;;23.03;55.36;93092.91;4805785;29;20079;-93
2023/09/19 02:49:33;;;;;;;7.57;5.13;;;;;;;23.01;55.19;93090.69;4826077;29;20045;-95
2023/09/19 02:51:59;;;;;;;;;;;;;;;23.04;55.21;93092.38;4821124;29;20041;-94
2023/09/19 02:54:30;;;;;;;8.75;5.55;;;;;;;23.00;55.29;93085.72;4856226;29;20010;-94
2023/09/19 02:57:00;;;;;;;7.55;5.00;;;;;;;23.00;55.44;93089.22;4847340;29;20037;-93
2023/09/19 02:59:28;;;;;;;8.80;4.68;;;;;;;22.99;55.16;93076.72;4865446;29;20041;-93
2023/09/19 03:01:54;;;;;;;6.95;4.63;;;;;;;23.00;55.21;93074.72;4852047;29;20041;-95
2023/09/19 03:04:22;;;;;;;6.75;4.40;;;;;;;23.00;55.15;93077.47;4829147;29;20122;-93
2023/09/19 03:07:01;;;;;;;7.32;4.53;;;;;;;23.01;55.08;93070.66;4829817;29;20041;-94
2023/09/19 03:09:26;;;;;;;8.25;4.13;;;;;;;23.00;55.32;93074.72;4858600;29;20073;-94
2023/09/19 03:11:52;;;;;;;8.48;4.93;;;;;;;22.99;55.28;93085.00;4850776;29;20041;-94
2023/09/19 03:14:20;;;;;;;6.95;4.28;;;;;;;23.01;55.14;93078.94;4850912;29;20076;-94
2023/09/19 03:16:53;;;;;;;9.30;4.57;;;;;;;23.01;55.22;93085.19;4834381;29;20075;-93
2023/09/19 03:19:28;;;;;;;7.47;4.13;;;;;;;23.01;54.99;93073.41;4858648;29;20308;-95
2023/09/19 03:21:57;;;;;;;5.00;3.65;;;;;;;22.99;55.19;93073.22;4849942;29;20050;-93
2023/09/19 03:24:33;;;;;;;6.05;3.80;;;;;;;23.01;55.01;93079.66;4832244;29;20098;-93
2023/09/19 03:27:00;;;;;;;7.65;4.80;;;;;;;22.99;55.17;93081.50;4838163;29;20056;-92
2023/09/19 03:29:26;;;;;;;9.05;4.22;;;;;;;23.01;55.24;93085.19;4831039;29;20359;-92
2023/09/19 03:31:55;;;;;;;12.02;3.90;;;;;;;23.06;55.14;93084.28;4843996;29;20048;-92
2023/09/19 03:40:21;;;;;;;15.65;13.60;;;;;;;23.16;54.55;93085.22;5130869;23;20052;-93
2023/09/19 03:42:48;;;;;;;4.87;3.43;;;;;;;23.15;54.60;93081.00;4914122;23;20036;-93
2023/09/19 03:45:16;;;;;;;12.43;9.35;;;;;;;23.07;53.72;93083.00;4899766;23;20049;-92
2023/09/19 03:47:52;;;;;;;11.63;8.40;;;;;;;22.73;54.23;93085.31;4850126;29;20045;-94
2023/09/19 03:50:18;;;;;;;8.07;6.22;;;;;;;22.56;53.95;93085.78;4828306;29;20464;-94
2023/09/19 03:53:07;;;;;;;49.78;26.83;;;;;;;22.30;54.77;93092.28;4850477;29;20056;-93
2023/09/19 03:55:35;;;;;;;37.53;18.27;;;;;;;22.16;54.34;93090.94;4784167;29;20109;-91
2023/09/19 03:58:07;;;;;;;32.38;15.30;;;;;;;22.01;54.19;93088.84;4870679;29;20328;-93
2023/09/19 04:00:35;;;;;;;38.22;16.48;;;;;;;21.80;54.42;93088.16;4847720;29;20714;-92
2023/09/19 04:03:05;;;;;;;33.38;14.73;;;;;;;21.76;54.49;93094.00;4857827;29;20041;-93
2023/09/19 04:05:44;;;;;;;40.40;17.80;;;;;;;21.59;54.65;93090.22;4869748;29;20037;-94
2023/09/19 04:08:11;;;;;;;49.42;19.85;;;;;;;21.41;54.87;93100.16;4866248;29;20048;-92
2023/09/19 04:10:38;;;;;;;49.70;18.38;;;;;;;21.31;55.15;93094.41;4852299;29;20057;-91
2023/09/19 04:13:07;;;;;;;33.13;13.00;;;;;;;21.17;55.39;93103.97;4860213;29;20041;-92
2023/09/19 04:15:33;;;;;;;23.45;9.40;;;;;;;21.10;55.13;93101.88;4846934;29;20077;-93
2023/09/19 04:18:03;;;;;;;21.23;8.55;;;;;;;20.94;55.72;93089.28;4870592;29;20045;-92
2023/09/19 04:20:34;;;;;;;14.85;6.75;;;;;;;20.88;55.84;93095.63;4857421;29;20052;-93
2023/09/19 04:23:22;;;;;;;12.13;5.72;;;;;;;20.85;55.75;93098.69;4852303;29;20057;-92
2023/09/19 04:25:53;;;;;;;10.20;4.28;;;;;;;20.73;56.14;93103.72;4875117;29;20078;-91
2023/09/19 04:28:19;;;;;;;10.65;3.65;;;;;;;20.73;56.18;93094.75;4822797;29;20428;-93
2023/09/19 04:30:45;;;;;;;20.40;8.90;;;;;;;20.70;56.02;93104.78;4821403;29;20042;-93
2023/09/19 04:33:11;;;;;;;26.77;13.68;;;;;;;20.71;56.11;93102.78;4792051;29;20575;-92
2023/09/19 04:35:38;;;;;;;50.55;30.58;;;;;;;20.70;56.35;93113.03;4804430;29;20053;-91
2023/09/19 04:38:06;;;;;;;30.10;17.05;;;;;;;20.65;56.38;93116.63;4808463;29;20050;-91
2023/09/19 04:40:33;;;;;;;23.60;13.70;;;;;;;20.63;56.63;93118.44;4808455;29;20061;-94
2023/09/19 04:43:00;;;;;;;18.13;8.77;;;;;;;20.62;56.71;93116.94;4808013;24;20046;-93
2023/09/19 04:45:37;;;;;;;16.33;7.70;;;;;;;20.59;56.75;93118.75;4846011;29;20041;-94
2023/09/19 04:48:03;;;;;;;14.23;5.97;;;;;;;20.58;56.99;93131.00;4843188;29;20084;-92
2023/09/19 04:50:29;;;;;;;16.02;5.97;;;;;;;20.51;56.88;93129.66;4835120;29;20050;-91
2023/09/19 04:52:56;;;;;;;20.48;7.68;;;;;;;20.43;57.42;93128.81;4817360;29;20041;-92
2023/09/19 04:55:22;;;;;;;19.30;6.85;;;;;;;20.50;57.04;93132.94;4817865;29;20144;-91
2023/09/19 04:57:50;;;;;;;19.90;11.10;;;;;;;20.52;56.94;93144.13;4843224;29;20097;-93
2023/09/19 05:00:22;;;;;;;40.92;10.00;;;;;;;20.53;56.94;93138.13;4814916;29;20041;-91
2023/09/19 05:02:49;;;;;;;37.85;10.68;;;;;;;20.43;57.34;93150.78;4812686;29;20037;-93
2023/09/19 05:05:16;;;;;;;51.25;10.52;;;;;;;20.46;57.10;93149.72;4818182;29;20037;-93
2023/09/19 05:07:42;;;;;;;55.22;16.38;;;;;;;20.36;57.41;93154.13;4814307;29;20071;-93
2023/09/19 05:10:11;;;;;;;56.08;15.93;;;;;;;20.42;57.09;93148.56;4834456;29;20033;-91
2023/09/19 05:12:37;;;;;;;66.32;14.45;;;;;;;20.56;56.98;93154.81;4816071;29;20056;-92
2023/09/19 05:15:04;;;;;;;54.40;13.43;;;;;;;20.67;56.52;93155.28;4836113;29;20072;-91
2023/09/19 05:17:31;;;;;;;57.17;11.77;;;;;;;20.68;56.76;93156.03;4817187;29;20064;-91
2023/09/19 05:19:57;;;;;;;40.03;9.55;;;;;;;20.83;56.34;93158.94;4814017;29;20494;-92
2023/09/19 05:22:24;;;;;;;44.90;10.50;;;;;;;20.92;56.04;93166.00;4842924;29;20072;-90
2023/09/19 05:24:51;;;;;;;52.35;19.85;;;;;;;20.93;56.05;93170.97;4815129;29;20030;-91
2023/09/19 05:27:16;;;;;;;67.75;12.85;;;;;;;21.00;56.04;93181.28;4816806;29;20076;-91
2023/09/19 05:29:53;;;;;;;66.65;12.93;;;;;;;21.13;55.81;93175.75;4819393;29;20049;-91
2023/09/19 05:32:23;;;;;;;59.45;15.48;;;;;;;21.08;55.84;93184.88;4855921;29;20060;-89
2023/09/19 05:34:56;;;;;;;52.00;16.13;;;;;;;21.09;55.76;93182.84;4852049;29;20041;-92
2023/09/19 05:37:26;;;;;;;59.35;20.77;;;;;;;21.13;55.94;93183.28;4812584;29;20042;-92
2023/09/19 05:39:53;;;;;;;48.33;21.00;;;;;;;;;;4828632;29;20053;-93
2023/09/19 05:42:19;;;;;;;134.25;51.88;;;;;;;21.28;55.76;93185.44;4826640;29;20067;-94
2023/09/19 05:44:54;;;;;;;64.13;23.30;;;;;;;21.24;55.54;93194.03;4825415;29;20094;-91
2023/09/19 05:47:32;;;;;;;55.45;17.90;;;;;;;21.19;55.71;93192.13;4815469;29;20050;-91
2023/09/19 05:50:09;;;;;;;39.90;15.93;;;;;;;21.24;55.49;93193.28;4778543;29;20050;-90
2023/09/19 05:52:36;;;;;;;40.17;14.45;;;;;;;21.20;55.60;93197.13;4780604;29;20087;-91
2023/09/19 05:55:05;;;;;;;54.65;17.60;;;;;;;;;;4767016;29;20073;-89
2023/09/19 05:57:32;;;;;;;33.97;17.50;;;;;;;21.26;55.80;93202.47;4813385;29;20086;-91
2023/09/19 06:00:13;;;;;;;105.80;47.92;;;;;;;21.35;55.71;93202.03;4788932;29;20413;-94
2023/09/19 06:02:40;;;;;;;136.95;71.15;;;;;;;21.49;55.89;93202.72;4768199;29;20047;-92
2023/09/19 06:05:06;;;;;;;145.93;80.32;;;;;;;21.49;55.56;93202.72;4780621;29;20058;-92
2023/09/19 06:07:37;;;;;;;101.45;59.13;;;;;;;21.46;55.64;93212.75;4784507;29;20043;-92
2023/09/19 06:10:05;;;;;;;91.68;53.20;;;;;;;21.45;55.93;93211.28;4767607;30;20051;-89
2023/09/19 06:12:32;;;;;;;83.20;51.58;;;;;;;21.54;55.89;93212.84;4772813;30;20586;-88
2023/09/19 06:14:59;;;;;;;59.30;34.85;;;;;;;21.50;55.43;93215.19;4782400;29;20048;-93
2023/09/19 06:17:27;;;;;;;53.75;33.00;;;;;;;21.50;55.60;93209.69;4777142;29;21188;-88
2023/09/19 06:19:59;;;;;;;44.53;23.55;;;;;;;21.46;55.83;93214.78;4775958;29;20046;-92
2023/09/19 06:22:25;;;;;;;40.55;21.25;;;;;;;21.50;55.49;93206.94;4806204;29;20050;-92
2023/09/19 06:24:51;;;;;;;27.58;16.55;;;;;;;21.52;55.67;93216.13;4810999;29;20075;-91
2023/09/19 06:27:16;;;;;;;22.13;14.30;;;;;;;21.51;55.52;93214.66;4800290;29;20061;-92
2023/09/19 06:29:41;;;;;;;24.17;14.95;;;;;;;21.50;55.58;93212.44;4811926;29;20421;-94
2023/09/19 06:32:08;;;;;;;38.08;17.10;;;;;;;21.47;55.72;93225.25;4825978;29;20056;-92
2023/09/19 06:34:35;;;;;;;47.70;19.70;;;;;;;21.43;55.85;93218.63;4795882;29;20042;-91
2023/09/19 06:37:03;;;;;;;128.68;61.15;;;;;;;21.47;55.57;93219.75;4833197;29;20042;-91
2023/09/19 06:39:31;;;;;;;127.18;65.53;;;;;;;21.46;55.70;93229.25;4828393;29;20050;-91
2023/09/19 06:42:00;;;;;;;168.68;92.10;;;;;;;21.49;55.56;93222.69;4811695;29;20584;-92
2023/09/19 06:44:29;;;;;;;250.45;133.93;;;;;;;21.44;55.91;93220.81;4833854;29;20041;-93
2023/09/19 06:46:56;;;;;;;234.25;135.73;;;;;;;21.42;55.88;93214.38;4815911;29;20049;-92
2023/09/19 06:49:21;;;;;;;211.60;122.13;;;;;;;21.47;56.08;93219.75;4845017;29;20078;-92
2023/09/19 06:51:49;;;;;;;197.73;88.03;;;;;;;21.48;55.86;93231.47;4853394;29;20045;-93
2023/09/19 06:54:14;;;;;;;131.30;58.50;;;;;;;21.50;55.91;93232.44;4833767;29;20141;-93
2023/09/19 06:56:41;;;;;;;157.25;56.67;;;;;;;21.58;55.74;93235.25;4820252;29;20060;-91
2023/09/19 06:59:08;;;;;;;128.77;50.63;;;;;;;21.48;56.10;93228.72;4812656;29;20070;-91
2023/09/19 07:01:37;;;;;;;126.30;53.65;;;;;;;21.44;55.92;93239.31;4775950;29;20058;-92
2023/09/19 07:04:16;;;;;;;168.10;64.18;;;;;;;21.52;56.09;93238.13;4823469;29;20042;-93
2023/09/19 07:06:42;;;;;;;113.05;47.00;;;;;;;21.52;55.88;93242.91;4829721;29;20577;-90
2023/09/19 07:09:09;;;;;;;103.80;49.00;;;;;;;21.50;56.14;93253.69;4827712;23;20076;-90
2023/09/19 07:11:36;;;;;;;96.05;39.30;;;;;;;21.51;56.13;93249.66;4805205;29;20091;-91
2023/09/19 07:14:03;;;;;;;67.93;33.60;;;;;;;21.55;55.70;93261.81;4794821;29;20046;-90
2023/09/19 07:16:31;;;;;;;54.63;27.23;;;;;;;21.51;55.93;93266.16;4796706;29;20566;-90
2023/09/19 07:18:58;;;;;;;82.65;37.67;;;;;;;21.60;56.15;93253.97;4790101;29;20106;-91
2023/09/19 07:21:24;;;;;;;65.90;29.42;;;;;;;21.60;56.37;93259.47;4771494;30;20058;-91
2023/09/19 07:23:50;;;;;;;42.85;19.65;;;;;;;21.62;56.04;93268.69;4759147;30;20051;-91
2023/09/19 07:26:25;;;;;;;38.88;18.42;;;;;;;21.54;55.80;93274.09;4737246;30;20148;-93
2023/09/19 07:28:50;;;;;;;30.15;14.30;;;;;;;21.42;56.44;93278.38;4746165;30;20057;-93
2023/09/19 07:31:16;;;;;;;14.85;7.95;;;;;;;21.24;56.94;93292.25;4742167;30;20056;-90
2023/09/19 07:33:42;;;;;;;19.98;10.10;;;;;;;21.13;56.72;93293.22;4739218;30;20150;-92
2023/09/19 07:36:10;;;;;;;8.77;4.65;;;;;;;20.98;57.51;93293.78;4753295;30;20059;-92
2023/09/19 07:38:38;;;;;;;21.20;10.60;;;;;;;20.88;57.47;93298.97;4756606;30;20055;-92
2023/09/19 07:41:05;;;;;;;30.08;12.00;;;;;;;20.85;57.53;93305.50;4737102;29;20121;-90
2023/09/19 07:43:31;;;;;;;35.97;15.35;;;;;;;20.70;57.70;93308.06;4753517;29;20066;-92
2023/09/19 07:45:57;;;;;;;30.73;16.63;;;;;;;20.71;57.79;93312.28;4779600;29;20595;-91
2023/09/19 07:48:24;;;;;;;24.83;10.48;;;;;;;20.69;57.84;93319.56;4772237;29;20150;-91
2023/09/19 07:50:49;;;;;;;28.67;10.45;;;;;;;20.64;57.66;93326.63;4737535;29;20042;-92
2023/09/19 07:53:17;;;;;;;30.63;9.52;;;;;;;20.69;57.96;93327.81;4767371;29;20053;-94
2023/09/19 07:55:43;;;;;;;29.40;8.50;;;;;;;20.59;58.01;93324.72;4783642;29;20069;-91
2023/09/19 07:58:09;;;;;;;15.77;5.85;;;;;;;20.55;57.98;93331.81;4778481;29;20132;-91
2023/09/19 08:00:34;;;;;;;41.72;8.90;;;;;;;20.61;57.63;93332.44;4790426;29;20130;-91
2023/09/19 08:03:00;;;;;;;32.38;8.10;;;;;;;20.56;58.02;93334.03;4793775;29;20049;-92
2023/09/19 08:05:26;;;;;;;11.02;5.20;;;;;;;20.50;58.33;93338.88;4809039;29;20068;-93
2023/09/19 08:07:52;;;;;;;10.88;3.13;;;;;;;20.43;59.01;93345.00;4811102;29;20092;-92
2023/09/19 08:10:19;;;;;;;15.18;4.60;;;;;;;20.40;58.67;93341.28;4769869;29;20780;-91
2023/09/19 08:12:48;;;;;;;14.00;3.13;;;;;;;20.51;58.41;93340.38;4778087;29;20047;-90
2023/09/19 08:15:15;;;;;;;10.32;3.85;;;;;;;20.56;58.85;93349.78;4754049;29;20125;-89
2023/09/19 08:17:40;;;;;;;17.40;3.53;;;;;;;20.66;58.70;93348.81;4770475;29;20047;-92
2023/09/19 08:20:07;;;;;;;21.40;7.05;;;;;;;20.72;58.23;93346.00;4786033;29;20123;-92
2023/09/19 08:22:34;;;;;;;27.70;7.10;;;;;;;20.75;58.35;93350.44;4759135;29;20495;-91
2023/09/19 08:25:01;;;;;;;16.17;6.90;;;;;;;20.75;58.32;93353.19;4784426;29;20054;-88
2023/09/19 08:27:27;;;;;;;28.20;9.10;;;;;;;20.84;58.42;93348.00;4769412;29;20574;-88
2023/09/19 08:29:53;;;;;;;33.85;7.25;;;;;;;20.77;58.41;93348.63;4769508;29;20169;-90
2023/09/19 08:32:24;;;;;;;10.32;3.75;;;;;;;20.84;58.90;93352.75;4771613;29;21442;-88
2023/09/19 08:34:53;;;;;;;14.20;4.47;;;;;;;20.87;58.61;93362.69;4807095;29;20133;-91
2023/09/19 08:37:19;;;;;;;18.63;5.10;;;;;;;20.97;58.73;93352.03;4809695;29;20047;-92
2023/09/19 08:39:44;;;;;;;10.82;4.00;;;;;;;20.95;58.59;93360.06;4763586;29;20054;-92
2023/09/19 08:42:11;;;;;;;14.30;6.50;;;;;;;20.98;58.75;93356.25;4811862;29;20070;-91
2023/09/19 08:44:37;;;;;;;14.00;5.32;;;;;;;20.97;58.70;93365.75;4817753;29;20049;-90
2023/09/19 08:47:10;;;;;;;21.02;9.32;;;;;;;21.07;58.34;93353.06;4847059;29;20704;-92
2023/09/19 08:49:59;;;;;;;32.40;15.32;;;;;;;21.03;58.56;93356.13;4829750;29;21487;-87
2023/09/19 08:52:36;;;;;;;32.38;17.67;;;;;;;20.96;58.63;93361.53;4850485;29;20041;-89
2023/09/19 08:55:04;;;;;;;20.77;11.95;;;;;;;20.98;58.45;93370.72;4820319;24;20050;-90
2023/09/19 08:57:33;;;;;;;13.10;7.60;;;;;;;20.95;58.82;93352.53;4823544;29;20046;-93
2023/09/19 08:59:59;;;;;;;22.48;12.27;;;;;;;20.95;58.68;93369.03;4810739;29;20047;-90
2023/09/19 09:02:25;;;;;;;12.90;8.70;;;;;;;21.03;58.66;93360.88;4812716;29;20035;-89
2023/09/19 09:04:51;;;;;;;17.90;8.35;;;;;;;21.04;58.97;93367.84;4818558;29;20181;-91
2023/09/19 09:07:19;;;;;;;18.88;8.75;;;;;;;21.03;59.31;93364.38;4804940;29;20066;-91
2023/09/19 09:09:44;;;;;;;20.80;8.63;;;;;;;21.10;59.41;93354.75;4813500;29;20085;-90
2023/09/19 09:12:13;;;;;;;92.05;21.70;;;;;;;21.07;59.31;93372.28;4845169;29;20040;-88
2023/09/19 09:14:39;;;;;;;65.82;18.23;;;;;;;21.15;59.37;93362.16;4824874;29;20050;-89
2023/09/19 09:17:05;;;;;;;40.08;14.18;;;;;;;21.11;59.34;93356.97;4811172;29;20045;-93
2023/09/19 09:19:31;;;;;;;33.28;12.48;;;;;;;21.19;60.10;93365.31;4803723;29;20046;-91
2023/09/19 09:22:23;;;;;;;37.50;18.27;;;;;;;21.28;59.67;93369.66;4803957;29;20397;-94
2023/09/19 09:24:54;;;;;;;58.95;28.35;;;;;;;21.26;59.64;93369.44;4820125;29;20050;-93
2023/09/19 09:27:23;;;;;;;66.28;22.83;;;;;;;21.22;59.54;93367.03;4784963;29;20166;-93
2023/09/19 09:29:52;;;;;;;56.22;22.38;;;;;;;21.22;59.47;93367.03;4772956;29;20059;-93
2023/09/19 09:32:25;;;;;;;35.47;16.40;;;;;;;21.26;59.37;93372.94;4804406;29;20047;-91
2023/09/19 09:35:28;;;;;;;43.45;16.80;;;;;;;21.27;59.18;93373.69;4796959;29;20051;-94
2023/09/19 09:38:09;;;;;;;57.72;17.77;;;;;;;21.24;58.93;93374.75;4748453;30;20492;-92
2023/09/19 09:43:41;;;;;;;27.10;8.73;;;;;;;21.26;58.82;93381.19;4712589;30;20048;-93
2023/09/19 09:51:59;;;;;;;59.47;29.00;;;;;;;21.30;58.76;93386.38;4730140;30;20156;-92
2023/09/19 09:54:33;;;;;;;52.00;23.77;;;;;;;21.21;58.92;93387.56;4706118;30;20057;-91
2023/09/19 09:57:00;;;;;;;28.83;13.35;;;;;;;21.20;58.97;93389.56;4719421;30;20068;-92
2023/09/19 10:07:11;;;;;;;36.53;12.85;;;;;;;21.19;59.02;93388.06;4676434;30;20069;-92
2023/09/19 10:12:56;;;;;;;22.00;8.70;;;;;;;21.29;58.64;93393.88;4596850;30;20087;-93
2023/09/19 10:15:53;;;;;;;20.67;7.63;;;;;;;21.26;58.73;93392.19;4657309;30;20503;-93
2023/09/19 10:18:32;;;;;;;74.70;53.97;;;;;;;21.24;59.10;93391.22;4602708;30;20122;-92
2023/09/19 10:21:08;;;;;;;75.05;56.08;;;;;;;21.23;59.14;93387.00;4649167;30;20035;-91
2023/09/19 10:23:34;;;;;;;91.50;76.18;;;;;;;21.18;59.63;93394.09;4714494;24;20042;-92
2023/09/19 10:26:01;;;;;;;38.72;31.58;;;;;;;21.29;59.08;93398.63;4848386;24;20052;-91
2023/09/19 10:28:35;;;;;;;17.30;9.00;;;;;;;;;;4846509;29;20038;-93
2023/09/19 10:31:00;;;;;;;14.13;5.55;;;;;;;21.28;59.03;93400.66;4866097;29;20037;-90
2023/09/19 10:33:26;;;;;;;147.45;122.13;;;;;;;21.32;59.06;93414.81;4869224;24;20055;-93
2023/09/19 10:35:51;;;;;;;265.73;220.88;;;;;;;;;;4885413;29;20048;-92
2023/09/19 10:38:23;;;;;;;14.27;11.93;;;;;;;21.27;58.92;93401.91;4883769;29;20060;-93
2023/09/19 10:41:05;;;;;;;132.35;60.83;;;;;;;21.22;59.00;93402.75;4869321;29;20112;-93
2023/09/19 10:43:54;;;;;;;12.60;4.45;;;;;;;21.23;58.91;93414.50;4860183;29;20053;-93
2023/09/19 10:46:20;;;;;;;5.63;3.80;;;;;;;;;;4847260;23;20059;-92
2023/09/19 10:49:21;;;;;;;;;;;;;;;;;;;;;
2023/09/19 10:51:59;;;;;;;6.15;3.42;;;;;;;21.20;59.08;93405.31;4813347;29;20506;-94
2023/09/19 10:54:54;;;;;;;18.88;5.07;;;;;;;21.18;59.12;93405.09;4807970;29;20465;-92
2023/09/19 10:58:01;;;;;;;21.55;10.60;;;;;;;21.18;58.83;93407.84;4854532;23;20038;-92
2023/09/19 11:00:39;;;;;;;150.35;34.40;;;;;;;21.22;58.74;93408.25;4811643;29;20042;-92
2023/09/19 11:03:42;;;;;;;47.15;21.55;;;;;;;21.22;58.88;93408.25;4853079;23;20057;-91
2023/09/19 11:07:10;;;;;;;;;;;;;;;;;;;;;
2023/09/19 11:27:27;;;;;;;85.55;37.95;;;;;;;21.41;58.20;93399.91;4868704;29;20127;-93
2023/09/19 11:30:29;;;;;;;101.88;42.50;;;;;;;21.37;58.18;93388.50;4850587;29;20490;-92
2023/09/19 11:33:43;;;;;;;;;;;;;;;;;;;;;
2023/09/19 11:36:15;;;;;;;99.03;43.70;;;;;;;21.41;58.37;93395.16;4840567;29;20630;-92
2023/09/19 11:38:49;;;;;;;93.30;40.15;;;;;;;21.45;58.38;93397.56;4870172;29;20048;-92
2023/09/19 11:41:38;;;;;;;82.38;38.45;;;;;;;21.48;58.52;93393.75;4881554;29;20040;-94
2023/09/19 11:44:12;;;;;;;86.47;37.80;;;;;;;21.49;58.61;93395.97;4868462;29;20108;-92
2023/09/19 11:47:29;;;;;;;;;;;;;;;;;;;;;
2023/09/19 11:53:33;;;;;;;98.32;39.70;;;;;;;21.54;57.83;93386.88;4925865;23;20041;-92
2023/09/19 11:57:02;;;;;;;46.85;25.50;;;;;;;21.53;57.91;93381.91;4904084;24;20057;-92
2023/09/19 12:31:03;;;;;;;55.47;22.75;;;;;;;21.68;57.05;93376.56;5450420;23;20111;-94
2023/09/19 12:33:40;;;;;;;44.75;23.02;;;;;;;21.72;57.56;93376.25;4950244;23;20549;-95
2023/09/19 12:37:00;;;;;;;43.80;20.23;;;;;;;21.73;57.05;93372.97;4846724;29;20052;-93
2023/09/19 12:39:56;;;;;;;63.13;22.55;;;;;;;21.82;57.47;93380.03;4837329;29;20111;-93
2023/09/19 12:42:46;;;;;;;40.05;22.20;;;;;;;21.81;57.26;93362.78;4859893;29;20591;-92
2023/09/19 12:45:17;;;;;;;39.90;24.05;;;;;;;21.83;57.23;93359.50;4828461;29;20108;-92
2023/09/19 12:51:17;;;;;;;31.52;20.30;;;;;;;21.81;56.80;93368.28;4883437;23;20043;-93
2023/09/19 12:54:43;;;;;;;;;;;;;;;;;;;;;
2023/09/19 13:12:47;;;;;;;99.88;42.97;;;;;;;21.79;55.85;93354.31;4890797;23;20045;-92
2023/09/19 13:15:23;;;;;;;90.50;43.75;;;;;;;21.78;55.79;93354.84;4835757;29;20116;-93
2023/09/19 13:18:01;;;;;;;111.75;45.63;;;;;;;21.79;55.57;93348.09;4811038;29;20081;-94
2023/09/19 13:20:27;;;;;;;126.72;50.38;;;;;;;21.82;55.43;93366.28;4800326;29;20069;-94
2023/09/19 13:23:08;;;;;;;129.23;52.80;;;;;;;21.83;55.44;93378.75;4812490;29;20042;-93
2023/09/19 13:45:00;;;;;;;137.85;58.92;;;;;;;21.80;56.49;93412.84;5024078;23;20096;-94
2023/09/19 14:19:48;;;;;;;106.15;48.70;;;;;;;21.82;56.70;93394.53;4890572;29;20400;-90
2023/09/19 14:22:14;;;;;;;113.53;52.35;;;;;;;21.91;56.80;93390.56;4839594;29;20037;-90
2023/09/19 14:51:11;;;;;;;246.50;123.15;;;;;;;22.18;56.41;93383.00;5293541;23;20453;-94